Kirklareli, Turkey

12:31 PM +03 on January 17, 2017 (GMT +0300)
Avren | | Change Station

Elev 1306 ft 41.69 °N, 27.56 °E | Updated 1 minute ago

Mostly Cloudy
Mostly Cloudy
40.9 °F
Feels Like 41 °F
N
3.0
Wind Variable Wind from ESE
Gusts 8.0 mph

Today
High -- | Low -- °F
--% Chance of Precip.
Yesterday
High -- | Low -- °F
Precip. -- in
Pressure 30.09 in
Visibility 6.2 miles
Clouds Overcast 1100 ft
Windchill 41 °F
Dew Point 21 °F
Humidity 46%
Rainfall 0.15 in
Snow Depth Not available.
8:34 AM 6:07 PM
Waning Gibbous, 74% visible
METAR LBBG 170930Z 03017KT 9999 -RA OVC011 04/02 Q1019 R99/29//95 NOSIG
Pressure 30.09 in
Visibility 6.2 miles
Clouds Overcast 1100 ft
Windchill 41 °F
Dew Point 21 °F
Humidity 46%
Rainfall 0.15 in
Snow Depth Not available.
8:34 AM 6:07 PM
Waning Gibbous, 74% visible
METAR LBBG 170930Z 03017KT 9999 -RA OVC011 04/02 Q1019 R99/29//95 NOSIG

Get Your Daily Forecast Email!

Thanks for signing up!

Be on the lookout for a verification email in your inbox.

You'll start receiving the daily forecast at 8 AM.

×

10-Day Weather Forecast

×

Almanac

Astronomy

Jan. 17, 2017 Rise Set
Actual Time
Civil Twilight
Nautical Twilight
Astronomical Twilight
Moon
Length of Visible Light
Length of Day
Tomorrow will be .
, % of the Moon is Illuminated

Today's Extremes

Country Highs Country Lows

Community

WunderPhotos

Upload Photos

1,962,540 photos uploaded!

WunderBlog® & News

Nearby

Air Quality

  Air Quality AQ Index Pollutant
Not available.

Snow Depth

Station Depth Elevation

Earthquake Activity

City Distance Mag. Time & Date
Minimum magnitude displayed is 2.5.

Coastal Water Temperatures

Place Temperature

Stations

Nearby Weather Stations

Station Location Temp. Windchill Dew Point Humidity Wind Precip. Elev Updated Type